Henrietta, Missouri
Current Conditions -  °F | °C
As of 6:15 AM on Thursday 18 Dec 2014 (Local Time) from KGPH Reporting Station
Light Snow Light Snow  
Wind Chill: 30°   Ceiling: 2400
Heat Index: 30°   Visibility: 7mi
Dew Point: 28°   Wind: 3mph
Humidity: 93%   Direction: 80°E
Pressure: 30.23"   Gusts: NA
Location:  39.23°N, 93.94°W
Report Text: KGPH 181215Z AUTO 08003KT 7SM -SN SCT020 BKN024 OVC043 M01/M02 A3023 RMK AO2
Loading
Personal Weather Stations






























Interactive Weather Map New forecast layout! Learn more

10-Day Weather Forecast

Advertisements
Track Severe Weather on mobile